sensor_id;sensor_type;location;lat;lon;timestamp;P1;durP1;ratioP1;P2;durP2;ratioP2
19404;SDS011;9838;49.384;8.292;2023-06-26T00:06:24;2.78;;;1.73;;
19404;SDS011;9838;49.384;8.292;2023-06-26T00:16:26;2.95;;;2.03;;
19404;SDS011;9838;49.384;8.292;2023-06-26T00:26:29;2.70;;;1.90;;
19404;SDS011;9838;49.384;8.292;2023-06-26T00:36:31;4.32;;;1.65;;
19404;SDS011;9838;49.384;8.292;2023-06-26T00:46:33;2.78;;;2.03;;
19404;SDS011;9838;49.384;8.292;2023-06-26T00:56:36;4.20;;;1.67;;
19404;SDS011;9838;49.384;8.292;2023-06-26T01:06:39;2.75;;;2.10;;
19404;SDS011;9838;49.384;8.292;2023-06-26T01:16:41;3.25;;;2.45;;
19404;SDS011;9838;49.384;8.292;2023-06-26T01:26:50;3.05;;;1.90;;
19404;SDS011;9838;49.384;8.292;2023-06-26T01:36:53;4.53;;;1.98;;
19404;SDS011;9838;49.384;8.292;2023-06-26T01:47:01;2.17;;;1.65;;
19404;SDS011;9838;49.384;8.292;2023-06-26T01:57:05;2.97;;;2.03;;
19404;SDS011;9838;49.384;8.292;2023-06-26T02:07:07;3.55;;;1.90;;
19404;SDS011;9838;49.384;8.292;2023-06-26T02:17:10;2.42;;;1.80;;
19404;SDS011;9838;49.384;8.292;2023-06-26T02:27:12;3.22;;;2.00;;
19404;SDS011;9838;49.384;8.292;2023-06-26T02:37:14;2.63;;;1.70;;
19404;SDS011;9838;49.384;8.292;2023-06-26T02:47:17;2.13;;;1.40;;
19404;SDS011;9838;49.384;8.292;2023-06-26T02:57:19;2.83;;;1.70;;
19404;SDS011;9838;49.384;8.292;2023-06-26T03:07:24;2.15;;;1.58;;
19404;SDS011;9838;49.384;8.292;2023-06-26T03:17:26;2.45;;;1.63;;
19404;SDS011;9838;49.384;8.292;2023-06-26T03:27:34;2.97;;;1.90;;
19404;SDS011;9838;49.384;8.292;2023-06-26T03:37:36;2.72;;;1.80;;
19404;SDS011;9838;49.384;8.292;2023-06-26T03:47:38;2.22;;;1.60;;
19404;SDS011;9838;49.384;8.292;2023-06-26T03:57:40;3.13;;;1.92;;
19404;SDS011;9838;49.384;8.292;2023-06-26T04:07:44;2.28;;;1.60;;
19404;SDS011;9838;49.384;8.292;2023-06-26T04:17:46;3.35;;;1.80;;
19404;SDS011;9838;49.384;8.292;2023-06-26T04:27:48;2.30;;;1.70;;
19404;SDS011;9838;49.384;8.292;2023-06-26T04:37:50;3.67;;;1.80;;
19404;SDS011;9838;49.384;8.292;2023-06-26T04:47:52;2.55;;;2.00;;
19404;SDS011;9838;49.384;8.292;2023-06-26T04:57:54;3.15;;;1.65;;
19404;SDS011;9838;49.384;8.292;2023-06-26T05:07:56;2.50;;;1.70;;
19404;SDS011;9838;49.384;8.292;2023-06-26T05:17:58;2.33;;;1.60;;
19404;SDS011;9838;49.384;8.292;2023-06-26T05:28:00;2.30;;;1.52;;
19404;SDS011;9838;49.384;8.292;2023-06-26T05:38:02;2.72;;;1.80;;
19404;SDS011;9838;49.384;8.292;2023-06-26T05:48:04;2.42;;;1.63;;
19404;SDS011;9838;49.384;8.292;2023-06-26T05:58:06;2.03;;;1.52;;
19404;SDS011;9838;49.384;8.292;2023-06-26T06:08:08;3.42;;;1.73;;
19404;SDS011;9838;49.384;8.292;2023-06-26T06:18:10;3.92;;;1.70;;
19404;SDS011;9838;49.384;8.292;2023-06-26T06:28:12;2.33;;;1.60;;
19404;SDS011;9838;49.384;8.292;2023-06-26T06:38:17;2.22;;;1.55;;
19404;SDS011;9838;49.384;8.292;2023-06-26T06:48:18;2.28;;;1.60;;
19404;SDS011;9838;49.384;8.292;2023-06-26T06:58:20;2.67;;;1.58;;
19404;SDS011;9838;49.384;8.292;2023-06-26T07:08:23;2.88;;;1.70;;
19404;SDS011;9838;49.384;8.292;2023-06-26T07:18:25;2.00;;;1.35;;
19404;SDS011;9838;49.384;8.292;2023-06-26T07:28:27;3.45;;;1.58;;
19404;SDS011;9838;49.384;8.292;2023-06-26T07:38:29;1.48;;;1.30;;
19404;SDS011;9838;49.384;8.292;2023-06-26T07:48:31;2.15;;;1.40;;
19404;SDS011;9838;49.384;8.292;2023-06-26T07:58:32;2.35;;;1.55;;
19404;SDS011;9838;49.384;8.292;2023-06-26T08:08:34;2.10;;;1.27;;
19404;SDS011;9838;49.384;8.292;2023-06-26T08:18:36;2.38;;;1.20;;
19404;SDS011;9838;49.384;8.292;2023-06-26T08:28:37;2.75;;;1.38;;
19404;SDS011;9838;49.384;8.292;2023-06-26T08:38:39;5.53;;;1.50;;
19404;SDS011;9838;49.384;8.292;2023-06-26T08:48:41;2.88;;;1.40;;
19404;SDS011;9838;49.384;8.292;2023-06-26T08:58:49;1.98;;;1.30;;
19404;SDS011;9838;49.384;8.292;2023-06-26T09:08:50;3.45;;;1.20;;
19404;SDS011;9838;49.384;8.292;2023-06-26T09:18:52;2.45;;;1.30;;
19404;SDS011;9838;49.384;8.292;2023-06-26T09:28:54;2.35;;;1.50;;
19404;SDS011;9838;49.384;8.292;2023-06-26T09:38:56;4.78;;;1.88;;
19404;SDS011;9838;49.384;8.292;2023-06-26T09:49:07;1.90;;;1.48;;
19404;SDS011;9838;49.384;8.292;2023-06-26T09:59:11;2.35;;;1.67;;
19404;SDS011;9838;49.384;8.292;2023-06-26T10:09:13;2.17;;;1.30;;
19404;SDS011;9838;49.384;8.292;2023-06-26T10:19:18;2.33;;;1.50;;
19404;SDS011;9838;49.384;8.292;2023-06-26T10:29:27;2.03;;;1.40;;
19404;SDS011;9838;49.384;8.292;2023-06-26T10:39:48;1.90;;;1.35;;
19404;SDS011;9838;49.384;8.292;2023-06-26T10:49:50;2.20;;;1.30;;
19404;SDS011;9838;49.384;8.292;2023-06-26T11:00:10;1.90;;;1.30;;
19404;SDS011;9838;49.384;8.292;2023-06-26T11:10:15;2.30;;;1.40;;
19404;SDS011;9838;49.384;8.292;2023-06-26T11:20:17;2.63;;;1.65;;
19404;SDS011;9838;49.384;8.292;2023-06-26T11:30:22;3.42;;;1.30;;
19404;SDS011;9838;49.384;8.292;2023-06-26T11:40:24;3.50;;;1.15;;
19404;SDS011;9838;49.384;8.292;2023-06-26T11:50:31;2.25;;;1.30;;
19404;SDS011;9838;49.384;8.292;2023-06-26T12:00:33;2.20;;;1.17;;
19404;SDS011;9838;49.384;8.292;2023-06-26T12:10:35;2.15;;;1.23;;
19404;SDS011;9838;49.384;8.292;2023-06-26T12:20:39;2.38;;;1.20;;
19404;SDS011;9838;49.384;8.292;2023-06-26T12:30:45;6.68;;;1.60;;
19404;SDS011;9838;49.384;8.292;2023-06-26T12:40:47;3.17;;;1.08;;
19404;SDS011;9838;49.384;8.292;2023-06-26T12:50:49;6.90;;;2.20;;
19404;SDS011;9838;49.384;8.292;2023-06-26T13:00:51;2.53;;;1.70;;
19404;SDS011;9838;49.384;8.292;2023-06-26T13:10:54;4.50;;;2.00;;
19404;SDS011;9838;49.384;8.292;2023-06-26T13:20:56;2.40;;;1.63;;
19404;SDS011;9838;49.384;8.292;2023-06-26T13:30:58;3.53;;;1.60;;
19404;SDS011;9838;49.384;8.292;2023-06-26T13:40:59;1.83;;;0.90;;
19404;SDS011;9838;49.384;8.292;2023-06-26T13:51:02;1.23;;;0.70;;
19404;SDS011;9838;49.384;8.292;2023-06-26T14:01:03;3.13;;;0.98;;
19404;SDS011;9838;49.384;8.292;2023-06-26T14:11:05;1.23;;;0.63;;
19404;SDS011;9838;49.384;8.292;2023-06-26T14:21:08;2.78;;;0.70;;
19404;SDS011;9838;49.384;8.292;2023-06-26T14:31:10;1.60;;;0.70;;
19404;SDS011;9838;49.384;8.292;2023-06-26T14:41:12;1.50;;;0.60;;
19404;SDS011;9838;49.384;8.292;2023-06-26T14:51:14;1.35;;;0.40;;
19404;SDS011;9838;49.384;8.292;2023-06-26T15:01:16;1.40;;;0.60;;
19404;SDS011;9838;49.384;8.292;2023-06-26T15:11:18;2.03;;;0.80;;
19404;SDS011;9838;49.384;8.292;2023-06-26T15:21:20;3.92;;;1.02;;
19404;SDS011;9838;49.384;8.292;2023-06-26T15:31:21;1.00;;;0.40;;
19404;SDS011;9838;49.384;8.292;2023-06-26T15:41:23;1.02;;;0.50;;
19404;SDS011;9838;49.384;8.292;2023-06-26T15:51:25;2.55;;;0.60;;
19404;SDS011;9838;49.384;8.292;2023-06-26T16:01:27;1.98;;;0.70;;
19404;SDS011;9838;49.384;8.292;2023-06-26T16:11:29;1.60;;;0.45;;
19404;SDS011;9838;49.384;8.292;2023-06-26T16:21:30;1.23;;;0.50;;
19404;SDS011;9838;49.384;8.292;2023-06-26T16:31:32;3.47;;;0.60;;
19404;SDS011;9838;49.384;8.292;2023-06-26T16:41:34;3.10;;;0.60;;
19404;SDS011;9838;49.384;8.292;2023-06-26T16:51:36;1.10;;;0.40;;
19404;SDS011;9838;49.384;8.292;2023-06-26T17:01:38;2.72;;;0.77;;
19404;SDS011;9838;49.384;8.292;2023-06-26T17:11:40;1.27;;;0.50;;
19404;SDS011;9838;49.384;8.292;2023-06-26T17:21:42;1.52;;;0.40;;
19404;SDS011;9838;49.384;8.292;2023-06-26T17:31:48;0.75;;;0.30;;
19404;SDS011;9838;49.384;8.292;2023-06-26T17:41:50;1.42;;;0.40;;
19404;SDS011;9838;49.384;8.292;2023-06-26T17:51:51;1.02;;;0.40;;
19404;SDS011;9838;49.384;8.292;2023-06-26T18:01:53;1.00;;;0.50;;
19404;SDS011;9838;49.384;8.292;2023-06-26T18:11:56;1.30;;;0.60;;
19404;SDS011;9838;49.384;8.292;2023-06-26T18:21:58;0.75;;;0.38;;
19404;SDS011;9838;49.384;8.292;2023-06-26T18:32:00;2.20;;;0.73;;
19404;SDS011;9838;49.384;8.292;2023-06-26T18:42:01;2.35;;;0.40;;
19404;SDS011;9838;49.384;8.292;2023-06-26T18:52:05;0.82;;;0.40;;
19404;SDS011;9838;49.384;8.292;2023-06-26T19:02:06;1.02;;;0.45;;
19404;SDS011;9838;49.384;8.292;2023-06-26T19:12:09;0.77;;;0.47;;
19404;SDS011;9838;49.384;8.292;2023-06-26T19:22:11;1.15;;;0.47;;
19404;SDS011;9838;49.384;8.292;2023-06-26T19:32:12;0.77;;;0.40;;
19404;SDS011;9838;49.384;8.292;2023-06-26T19:42:14;0.60;;;0.50;;
19404;SDS011;9838;49.384;8.292;2023-06-26T19:52:16;1.08;;;0.50;;
19404;SDS011;9838;49.384;8.292;2023-06-26T20:02:19;0.70;;;0.50;;
19404;SDS011;9838;49.384;8.292;2023-06-26T20:12:20;1.80;;;0.57;;
19404;SDS011;9838;49.384;8.292;2023-06-26T20:22:23;1.00;;;0.50;;
19404;SDS011;9838;49.384;8.292;2023-06-26T20:32:24;3.38;;;0.40;;
19404;SDS011;9838;49.384;8.292;2023-06-26T20:42:26;0.73;;;0.40;;
19404;SDS011;9838;49.384;8.292;2023-06-26T20:52:28;1.20;;;0.47;;
19404;SDS011;9838;49.384;8.292;2023-06-26T21:02:31;0.75;;;0.38;;
19404;SDS011;9838;49.384;8.292;2023-06-26T21:12:35;0.85;;;0.40;;
19404;SDS011;9838;49.384;8.292;2023-06-26T21:22:36;0.80;;;0.30;;
19404;SDS011;9838;49.384;8.292;2023-06-26T21:32:38;0.95;;;0.30;;
19404;SDS011;9838;49.384;8.292;2023-06-26T21:42:40;1.33;;;0.50;;
19404;SDS011;9838;49.384;8.292;2023-06-26T21:52:41;3.40;;;0.75;;
19404;SDS011;9838;49.384;8.292;2023-06-26T22:02:44;1.25;;;0.50;;
19404;SDS011;9838;49.384;8.292;2023-06-26T22:12:45;1.73;;;0.60;;
19404;SDS011;9838;49.384;8.292;2023-06-26T22:22:47;1.63;;;0.60;;
19404;SDS011;9838;49.384;8.292;2023-06-26T22:32:49;1.15;;;0.30;;
19404;SDS011;9838;49.384;8.292;2023-06-26T22:42:51;1.90;;;0.65;;
19404;SDS011;9838;49.384;8.292;2023-06-26T22:52:53;0.82;;;0.47;;
19404;SDS011;9838;49.384;8.292;2023-06-26T23:02:55;1.00;;;0.47;;
19404;SDS011;9838;49.384;8.292;2023-06-26T23:12:57;0.75;;;0.40;;
19404;SDS011;9838;49.384;8.292;2023-06-26T23:22:59;1.23;;;0.50;;
19404;SDS011;9838;49.384;8.292;2023-06-26T23:33:01;0.52;;;0.30;;
19404;SDS011;9838;49.384;8.292;2023-06-26T23:43:06;0.55;;;0.35;;
19404;SDS011;9838;49.384;8.292;2023-06-26T23:53:07;1.15;;;0.60;;
